Time;durP1;ratioP1;P1;durP2;ratioP2;P2;SDS_P1;SDS_P2;PMS_P1;PMS_P2;Temp;Humidity;BMP_temperature;BMP_pressure;BME280_temperature;BME280_humidity;BME280_pressure;Samples;Min_cycle;Max_cycle;Signal;HPM_P1;HPM_P2
2022/04/11 00:00:36;;;;;;;3.08;2.10;;;;;;;7.63;77.44;99930.38;5012930;28;20026;-77
2022/04/11 00:03:03;;;;;;;2.85;2.08;;;;;;;7.55;78.91;99929.31;5013468;28;20029;-78
2022/04/11 00:05:30;;;;;;;2.80;1.95;;;;;;;7.44;78.84;99924.81;5012598;28;20037;-77
2022/04/11 00:07:55;;;;;;;2.67;2.08;;;;;;;7.40;79.49;99906.47;5012566;28;20030;-77
2022/04/11 00:10:21;;;;;;;2.65;1.90;;;;;;;7.29;79.26;99909.97;5012593;28;20434;-76
2022/04/11 00:12:47;;;;;;;6.43;2.15;;;;;;;7.17;79.98;99910.94;5012943;28;20057;-76
2022/04/11 00:15:13;;;;;;;4.03;2.10;;;;;;;6.99;80.03;99904.38;5014167;28;20022;-76
2022/04/11 00:17:39;;;;;;;2.60;1.77;;;;;;;6.79;80.46;99907.75;5028251;28;20499;-76
2022/04/11 00:20:05;;;;;;;3.58;2.30;;;;;;;6.77;81.03;99909.66;5031919;28;20065;-77
2022/04/11 00:22:35;;;;;;;3.72;1.88;;;;;;;6.67;81.66;99897.97;5014812;28;20463;-77
2022/04/11 00:25:01;;;;;;;2.00;1.80;;;;;;;6.64;81.28;99900.88;5015634;28;20041;-76
2022/04/11 00:27:26;;;;;;;4.30;2.42;;;;;;;6.62;81.68;99909.03;5001359;28;20037;-76
2022/04/11 00:29:53;;;;;;;6.82;2.17;;;;;;;6.51;81.27;99901.00;5000410;28;20488;-76
2022/04/11 00:32:18;;;;;;;2.17;2.00;;;;;;;6.55;81.74;99907.78;5017351;28;20029;-76
2022/04/11 00:34:44;;;;;;;3.90;2.60;;;;;;;6.51;82.22;99917.03;5011885;28;20048;-76
2022/04/11 00:37:11;;;;;;;9.95;2.08;;;;;;;6.46;81.74;99916.50;5012135;28;20087;-76
2022/04/11 00:39:36;;;;;;;2.83;2.55;;;;;;;6.42;82.06;99923.88;5012310;28;20034;-77
2022/04/11 00:42:14;;;;;;;2.42;2.22;;;;;;;6.39;82.57;99926.78;5013088;28;20097;-77
2022/04/11 00:44:40;;;;;;;2.45;2.10;;;;;;;6.34;82.39;99915.63;5008132;28;20033;-76
2022/04/11 00:47:05;;;;;;;2.00;1.80;;;;;;;6.24;82.56;99929.78;5011873;28;20034;-77
2022/04/11 00:49:31;;;;;;;2.53;2.33;;;;;;;6.26;83.40;99938.53;5011683;28;20026;-76
2022/04/11 00:51:57;;;;;;;3.00;2.50;;;;;;;6.28;83.10;99936.56;5012184;28;20030;-76
2022/04/11 00:54:24;;;;;;;6.63;2.60;;;;;;;6.28;83.62;99933.91;5013078;28;20025;-76
2022/04/11 00:56:50;;;;;;;3.05;2.75;;;;;;;6.27;83.82;99941.06;5011387;28;20029;-76
2022/04/11 00:59:18;;;;;;;2.80;2.60;;;;;;;6.28;84.27;99937.44;5013042;28;20037;-76
2022/04/11 01:01:47;;;;;;;6.70;3.10;;;;;;;6.22;84.00;99935.22;5012752;28;20100;-76
2022/04/11 01:04:23;;;;;;;2.70;2.40;;;;;;;6.28;83.51;99932.09;5012699;28;20021;-77
2022/04/11 01:06:56;;;;;;;3.35;2.38;;;;;;;6.25;83.40;99926.97;5012822;28;20100;-76
2022/04/11 01:09:27;;;;;;;2.20;2.00;;;;;;;6.24;83.28;99927.94;5011696;28;20030;-76
2022/04/11 01:11:53;;;;;;;2.63;2.35;;;;;;;6.18;83.29;99920.38;5011665;28;20030;-77
2022/04/11 01:14:20;;;;;;;3.60;2.55;;;;;;;6.14;83.64;99902.91;5012087;28;20419;-77
2022/04/11 01:16:51;;;;;;;6.80;2.20;;;;;;;6.22;83.80;99921.00;4995044;28;20034;-77
2022/04/11 01:19:17;;;;;;;2.35;2.15;;;;;;;6.18;84.04;99915.06;5012468;28;20022;-77
2022/04/11 01:21:46;;;;;;;2.60;2.22;;;;;;;6.19;84.18;99922.09;5012526;28;20028;-76
2022/04/11 01:24:13;;;;;;;3.60;2.58;;;;;;;6.14;83.89;99918.06;5008875;28;20034;-76
2022/04/11 01:26:39;;;;;;;3.78;2.03;;;;;;;6.15;83.62;99915.28;5012288;28;20030;-79
2022/04/11 01:29:08;;;;;;;2.75;2.30;;;;;;;6.14;83.92;99920.75;5011437;28;20132;-79
2022/04/11 01:31:34;;;;;;;3.28;1.92;;;;;;;6.10;83.40;99922.78;5011561;28;20025;-79
2022/04/11 01:34:00;;;;;;;3.55;2.50;;;;;;;6.09;83.85;99923.75;5012445;28;20029;-78
2022/04/11 01:36:26;;;;;;;1.98;1.80;;;;;;;6.09;83.69;99936.22;5012634;28;20104;-78
2022/04/11 01:38:52;;;;;;;2.53;2.33;;;;;;;6.13;84.40;99937.72;4994811;28;20057;-77
2022/04/11 01:41:19;;;;;;;2.97;2.60;;;;;;;6.07;84.11;99931.03;5012313;28;20021;-78
2022/04/11 01:43:46;;;;;;;4.03;2.75;;;;;;;6.06;84.32;99939.97;5012054;28;20022;-77
2022/04/11 01:46:11;;;;;;;2.75;2.13;;;;;;;6.00;84.38;99911.94;5012273;28;20018;-77
2022/04/11 01:48:37;;;;;;;2.65;2.45;;;;;;;6.03;84.41;99941.06;5011181;28;20030;-77
2022/04/11 01:51:05;;;;;;;2.70;2.25;;;;;;;6.04;84.84;99925.91;5011287;28;20113;-78
2022/04/11 01:53:31;;;;;;;5.07;2.63;;;;;;;6.02;85.03;99938.53;5012061;28;20038;-77
2022/04/11 01:55:58;;;;;;;3.38;2.65;;;;;;;6.03;85.48;99934.88;5015108;28;20026;-77
2022/04/11 01:58:23;;;;;;;3.22;2.70;;;;;;;6.02;85.24;99935.84;5017161;28;20025;-77
2022/04/11 02:00:50;;;;;;;3.83;2.28;;;;;;;5.95;85.65;99921.25;5012484;28;20037;-78
2022/04/11 02:03:16;;;;;;;3.17;2.00;;;;;;;6.01;85.88;99939.47;5012184;28;20029;-78
2022/04/11 02:05:42;;;;;;;2.70;2.47;;;;;;;5.97;84.99;99935.31;5016032;28;20388;-78
2022/04/11 02:08:10;;;;;;;3.70;2.35;;;;;;;5.98;85.55;99931.69;5015856;28;20026;-77
2022/04/11 02:10:38;;;;;;;2.88;2.45;;;;;;;5.92;85.83;99953.50;5015778;28;20035;-78
2022/04/11 02:13:04;;;;;;;2.83;2.10;;;;;;;5.88;86.01;99922.66;5015487;28;20121;-78
2022/04/11 02:15:30;;;;;;;2.70;2.42;;;;;;;5.87;85.93;99942.31;5015603;28;20061;-78
2022/04/11 02:17:55;;;;;;;2.50;2.05;;;;;;;5.78;85.92;99937.63;5015638;28;20057;-78
2022/04/11 02:20:21;;;;;;;4.80;2.33;;;;;;;5.77;85.17;99942.09;5015482;28;20056;-78
2022/04/11 02:22:49;;;;;;;2.70;2.20;;;;;;;5.77;85.01;99941.25;5014436;28;20492;-78
2022/04/11 02:25:16;;;;;;;3.00;2.00;;;;;;;5.69;84.64;99933.78;5014309;28;20018;-78
2022/04/11 02:27:44;;;;;;;2.10;1.77;;;;;;;5.66;85.16;99911.81;5015748;28;20032;-78
2022/04/11 02:30:10;;;;;;;3.88;2.55;;;;;;;5.65;85.10;99936.78;5015516;28;20100;-78
2022/04/11 02:32:36;;;;;;;3.13;2.45;;;;;;;5.64;85.60;99924.41;5015641;28;20522;-77
2022/04/11 02:35:03;;;;;;;2.55;2.30;;;;;;;5.65;86.16;99931.47;4997593;28;20053;-78
2022/04/11 02:37:28;;;;;;;4.13;2.92;;;;;;;5.62;86.21;99918.34;5015137;28;20033;-77
2022/04/11 02:39:55;;;;;;;5.88;2.33;;;;;;;5.62;85.90;99929.88;5015347;28;20033;-77
2022/04/11 02:42:24;;;;;;;3.20;2.65;;;;;;;5.69;86.17;99922.28;5015185;28;20026;-78
2022/04/11 02:44:50;;;;;;;3.35;2.63;;;;;;;5.72;86.48;99935.41;5015330;28;20026;-78
2022/04/11 02:47:16;;;;;;;4.85;2.83;;;;;;;5.64;86.42;99929.75;5014168;28;20045;-77
2022/04/11 02:49:41;;;;;;;7.07;2.47;;;;;;;5.57;86.39;99947.16;5013991;28;20030;-78
2022/04/11 02:52:07;;;;;;;2.63;2.22;;;;;;;5.58;87.20;99946.19;5015343;28;20050;-78
2022/04/11 02:54:32;;;;;;;5.85;2.30;;;;;;;5.53;87.08;99943.00;5013977;28;20034;-78
2022/04/11 02:56:59;;;;;;;2.47;2.17;;;;;;;5.55;87.74;99951.75;5014896;28;20091;-78
2022/04/11 02:59:25;;;;;;;2.67;2.22;;;;;;;5.49;87.42;99951.22;5015263;28;20037;-77
2022/04/11 03:01:50;;;;;;;7.88;2.20;;;;;;;5.41;87.21;99961.56;5014292;28;20030;-79
2022/04/11 03:04:16;;;;;;;7.75;2.63;;;;;;;5.39;87.41;99957.31;5014597;28;20029;-78
2022/04/11 03:06:42;;;;;;;4.55;2.83;;;;;;;5.34;87.52;99965.66;5015159;28;20476;-80
2022/04/11 03:09:08;;;;;;;3.22;2.17;;;;;;;5.32;87.78;99962.22;5015325;28;20104;-78
2022/04/11 03:11:35;;;;;;;8.30;2.60;;;;;;;5.22;88.35;99963.84;5014133;28;20464;-80
2022/04/11 03:14:02;;;;;;;7.32;2.70;;;;;;;5.28;89.25;99983.88;5015647;28;20050;-82
2022/04/11 03:16:27;;;;;;;8.05;2.42;;;;;;;5.18;89.83;99962.34;5013076;28;20460;-80
2022/04/11 03:18:53;;;;;;;5.78;3.05;;;;;;;5.14;90.03;99976.84;5014574;28;20029;-80
2022/04/11 03:21:19;;;;;;;8.95;2.85;;;;;;;5.06;90.61;99984.53;5014469;28;20022;-79
2022/04/11 03:23:44;;;;;;;9.98;3.75;;;;;;;4.97;91.10;99985.16;5014588;28;20026;-80
2022/04/11 03:26:10;;;;;;;6.93;2.80;;;;;;;4.89;92.04;99998.97;5014748;28;20484;-81
2022/04/11 03:28:38;;;;;;;8.25;3.15;;;;;;;4.88;92.18;99997.31;5014358;28;20104;-82
2022/04/11 03:31:04;;;;;;;4.72;3.47;;;;;;;4.94;92.78;99990.69;4998303;28;20036;-82
2022/04/11 03:33:31;;;;;;;3.88;3.38;;;;;;;4.92;93.29;99985.47;5014592;28;20053;-81
2022/04/11 03:35:57;;;;;;;4.53;3.15;;;;;;;4.91;93.47;99994.44;5041094;28;20018;-83
2022/04/11 03:38:23;;;;;;;4.55;3.15;;;;;;;5.07;94.22;99988.91;5053636;28;20033;-82
2022/04/11 03:40:48;;;;;;;5.63;3.88;;;;;;;5.06;94.38;100005.84;5031986;28;20041;-82
2022/04/11 03:43:14;;;;;;;7.45;3.22;;;;;;;5.09;93.87;100016.28;4998802;28;20045;-82
2022/04/11 03:45:40;;;;;;;5.13;3.47;;;;;;;5.16;93.93;100012.25;5018625;28;20033;-82
2022/04/11 03:48:05;;;;;;;5.72;3.42;;;;;;;5.18;93.32;100012.13;5014717;28;20439;-79
2022/04/11 03:50:31;;;;;;;7.30;3.35;;;;;;;5.22;93.55;100021.63;5013987;28;20022;-81
2022/04/11 03:52:56;;;;;;;8.15;3.90;;;;;;;5.29;93.82;100004.25;5013504;28;20025;-81
2022/04/11 03:55:23;;;;;;;5.50;3.67;;;;;;;5.31;93.63;99984.53;5014035;28;20468;-79
2022/04/11 03:57:49;;;;;;;7.82;3.50;;;;;;;5.32;93.43;100010.22;5019010;28;20507;-78
2022/04/11 04:00:16;;;;;;;4.05;3.17;;;;;;;5.38;92.99;100014.28;5013809;28;20014;-78
2022/04/11 04:02:43;;;;;;;3.63;2.92;;;;;;;5.38;92.98;100012.44;5013674;28;20022;-78
2022/04/11 04:05:09;;;;;;;8.50;5.03;;;;;;;5.41;92.84;100001.56;5012218;28;20182;-80
2022/04/11 04:07:36;;;;;;;4.80;4.03;;;;;;;5.41;93.07;99987.41;5013367;28;20034;-77
2022/04/11 04:10:03;;;;;;;5.22;3.45;;;;;;;5.44;93.02;100017.34;5013997;28;20025;-81
2022/04/11 04:12:29;;;;;;;4.80;3.58;;;;;;;5.48;93.16;100012.66;5012523;28;20033;-76
2022/04/11 04:14:55;;;;;;;3.85;3.15;;;;;;;5.50;92.83;100013.44;5011800;28;20030;-77
2022/04/11 04:17:20;;;;;;;4.03;3.53;;;;;;;5.56;92.99;100007.66;5012061;28;20416;-77
2022/04/11 04:19:45;;;;;;;8.60;4.65;;;;;;;5.58;92.98;99999.53;5015045;28;20397;-76
2022/04/11 04:22:11;;;;;;;7.32;3.92;;;;;;;5.54;92.97;100003.38;5014031;28;20032;-77
2022/04/11 04:24:36;;;;;;;6.43;4.20;;;;;;;5.60;93.06;100008.28;5022556;28;20029;-77
2022/04/11 04:27:03;;;;;;;6.60;4.18;;;;;;;5.65;93.07;100007.00;5021787;28;20455;-76
2022/04/11 04:29:29;;;;;;;5.20;4.25;;;;;;;5.66;92.69;100018.50;5024287;28;20017;-77
2022/04/11 04:31:55;;;;;;;8.52;5.80;;;;;;;5.67;92.33;100017.56;5032283;28;20769;-77
2022/04/11 04:34:20;;;;;;;9.00;4.60;;;;;;;5.68;92.66;100014.78;5031028;28;20108;-77
2022/04/11 04:36:47;;;;;;;6.30;4.40;;;;;;;5.65;92.51;100016.81;5032184;28;20471;-77
2022/04/11 04:39:13;;;;;;;7.50;4.57;;;;;;;5.72;92.96;100039.44;5032378;28;20119;-77
2022/04/11 04:41:38;;;;;;;11.30;5.63;;;;;;;5.71;93.47;100032.38;5032380;28;20029;-78
2022/04/11 04:44:06;;;;;;;10.57;5.55;;;;;;;5.68;93.18;100029.94;5033819;28;20390;-78
2022/04/11 04:46:32;;;;;;;11.15;6.97;;;;;;;5.69;93.12;100040.47;5033107;28;20045;-79
2022/04/11 04:48:58;;;;;;;7.38;6.15;;;;;;;5.75;93.21;100050.72;5031732;28;20025;-79
2022/04/11 04:51:23;;;;;;;11.40;7.38;;;;;;;5.74;93.03;100041.03;5014815;28;20037;-78
2022/04/11 04:53:49;;;;;;;10.50;8.07;;;;;;;5.71;92.32;100053.72;5032091;28;20029;-78
2022/04/11 04:56:14;;;;;;;8.68;7.45;;;;;;;5.77;92.79;100055.97;5031735;28;20057;-78
2022/04/11 04:58:41;;;;;;;15.65;8.05;;;;;;;5.81;92.78;100071.63;5032076;28;20029;-80
2022/04/11 05:01:07;;;;;;;8.15;7.20;;;;;;;5.78;91.79;100069.19;5032331;28;20021;-80
2022/04/11 05:03:33;;;;;;;14.32;8.73;;;;;;;5.76;92.18;100070.25;5032025;28;20025;-80
2022/04/11 05:05:58;;;;;;;11.70;9.13;;;;;;;5.82;92.35;100067.16;5032341;28;20406;-80
2022/04/11 05:08:24;;;;;;;12.52;9.25;;;;;;;5.80;92.38;100077.94;5030895;28;20515;-81
2022/04/11 05:10:50;;;;;;;14.55;8.75;;;;;;;5.77;92.49;100061.31;5030911;28;20033;-79
2022/04/11 05:13:16;;;;;;;17.33;11.10;;;;;;;5.82;93.25;100076.03;5032773;28;20061;-79
2022/04/11 05:15:42;;;;;;;15.23;9.70;;;;;;;5.87;93.37;100091.75;5052341;28;20006;-80
2022/04/11 05:18:08;;;;;;;13.15;9.48;;;;;;;5.95;93.41;100092.06;5044176;28;20036;-80
2022/04/11 05:20:35;;;;;;;12.23;8.90;;;;;;;5.94;92.16;100103.69;5031633;28;20086;-80
2022/04/11 05:23:01;;;;;;;12.38;9.43;;;;;;;5.98;92.74;100100.69;5030363;28;20037;-80
2022/04/11 05:25:26;;;;;;;15.75;9.68;;;;;;;5.98;92.85;100094.50;5031801;28;20033;-80
2022/04/11 05:27:52;;;;;;;14.40;10.57;;;;;;;6.02;92.68;100090.66;5030202;28;20022;-80
2022/04/11 05:30:19;;;;;;;17.38;10.20;;;;;;;6.03;93.15;100093.22;5030259;28;20025;-80
2022/04/11 05:32:45;;;;;;;17.83;12.98;;;;;;;6.08;93.68;100124.94;5031653;28;20113;-80
2022/04/11 05:35:11;;;;;;;26.10;12.95;;;;;;;6.08;93.46;100084.03;5030712;28;20063;-80
2022/04/11 05:37:36;;;;;;;19.65;11.50;;;;;;;6.07;92.68;100104.53;5028950;28;20565;-80
2022/04/11 05:40:03;;;;;;;17.77;12.35;;;;;;;6.13;92.56;100103.22;5029810;28;20030;-81
2022/04/11 05:42:31;;;;;;;14.98;11.18;;;;;;;6.11;92.64;100095.34;5030176;28;20063;-80
2022/04/11 05:44:58;;;;;;;15.38;12.02;;;;;;;6.13;92.49;100109.44;5031754;28;20057;-80
2022/04/11 05:47:24;;;;;;;18.02;12.25;;;;;;;6.16;92.42;100105.69;5031677;28;20026;-80
2022/04/11 05:49:49;;;;;;;19.38;13.13;;;;;;;6.11;92.79;100105.16;5030134;28;20577;-80
2022/04/11 05:52:16;;;;;;;14.75;10.73;;;;;;;6.16;92.74;100092.34;5031176;28;20033;-80
2022/04/11 05:54:42;;;;;;;16.98;12.40;;;;;;;6.23;92.83;100107.81;5030112;28;20056;-80
2022/04/11 05:57:09;;;;;;;14.55;10.80;;;;;;;6.18;91.95;100107.28;5031699;28;20022;-79
2022/04/11 05:59:36;;;;;;;19.88;12.10;;;;;;;6.23;91.36;100088.28;5030523;28;20021;-79
2022/04/11 06:02:01;;;;;;;21.02;14.25;;;;;;;6.24;91.23;100098.81;5031665;28;20041;-79
2022/04/11 06:04:27;;;;;;;13.15;10.82;;;;;;;6.22;91.17;100098.09;5030186;28;20502;-79
2022/04/11 06:06:53;;;;;;;13.70;10.88;;;;;;;6.18;90.97;100109.94;5029851;28;20163;-80
2022/04/11 06:09:18;;;;;;;17.52;11.13;;;;;;;6.22;91.81;100092.75;5030544;28;20170;-79
2022/04/11 06:11:44;;;;;;;19.80;12.40;;;;;;;6.28;91.74;100097.66;5029841;28;20029;-80
2022/04/11 06:14:09;;;;;;;15.48;11.57;;;;;;;6.35;91.86;100088.25;5029821;28;20145;-81
2022/04/11 06:16:36;;;;;;;14.65;12.07;;;;;;;6.42;91.84;100089.47;5030144;28;20040;-80
2022/04/11 06:19:01;;;;;;;18.33;11.13;;;;;;;6.43;91.64;100099.22;5031317;28;20419;-81
2022/04/11 06:21:27;;;;;;;15.55;11.30;;;;;;;6.43;91.40;100099.22;5031077;28;20025;-79
2022/04/11 06:23:52;;;;;;;19.42;10.27;;;;;;;6.44;90.99;100141.00;5031315;28;20114;-80
2022/04/11 06:26:18;;;;;;;13.93;9.25;;;;;;;6.37;91.29;100118.34;5034347;28;20020;-81
2022/04/11 06:28:44;;;;;;;13.50;10.27;;;;;;;6.43;91.56;100133.94;5031934;28;20032;-80
2022/04/11 06:31:10;;;;;;;11.45;8.43;;;;;;;6.45;91.21;100142.69;5032209;28;20056;-80
2022/04/11 06:33:37;;;;;;;10.32;8.18;;;;;;;6.52;90.40;100133.25;5030813;28;20021;-80
2022/04/11 06:36:09;;;;;;;12.15;8.25;;;;;;;6.58;90.45;100146.19;5031310;28;20108;-80
2022/04/11 06:38:37;;;;;;;11.63;7.85;;;;;;;6.54;89.42;100155.38;5030678;28;20080;-81
2022/04/11 06:41:04;;;;;;;10.55;7.75;;;;;;;6.60;89.33;100156.78;5031412;28;20033;-80
2022/04/11 06:43:31;;;;;;;12.38;8.90;;;;;;;6.66;89.45;100171.50;5031141;28;20025;-80
2022/04/11 06:45:56;;;;;;;14.07;7.70;;;;;;;6.76;89.92;100184.06;5031712;28;20099;-80
2022/04/11 06:48:22;;;;;;;11.15;7.53;;;;;;;6.77;89.95;100179.56;5013530;28;20388;-80
2022/04/11 06:50:50;;;;;;;13.68;7.63;;;;;;;6.87;89.62;100167.25;5032430;28;20068;-80
2022/04/11 06:53:18;;;;;;;12.25;8.30;;;;;;;6.94;89.00;100197.94;5039210;28;20026;-79
2022/04/11 06:55:47;;;;;;;11.10;7.00;;;;;;;6.94;87.98;100219.31;5054626;28;20018;-80
2022/04/11 06:58:14;;;;;;;12.23;8.65;;;;;;;7.06;87.79;100215.75;5030860;28;20029;-79
2022/04/11 07:00:41;;;;;;;10.77;7.68;;;;;;;7.14;87.61;100248.09;5034951;28;20028;-81
2022/04/11 07:03:07;;;;;;;8.88;6.82;;;;;;;7.18;87.00;100249.59;5033637;28;20126;-81
2022/04/11 07:05:36;;;;;;;12.75;7.68;;;;;;;7.16;86.51;100245.31;5034291;28;20129;-81
2022/04/11 07:08:02;;;;;;;10.13;6.63;;;;;;;7.23;86.59;100255.44;5034001;28;20018;-79
2022/04/11 07:10:27;;;;;;;8.43;5.90;;;;;;;7.22;85.31;100269.78;5031514;28;20495;-80
2022/04/11 07:12:53;;;;;;;11.73;8.25;;;;;;;7.32;86.24;100281.53;5034014;28;20056;-81
2022/04/11 07:15:20;;;;;;;11.95;6.85;;;;;;;7.37;86.29;100287.38;5033724;28;20107;-81
2022/04/11 07:17:45;;;;;;;10.55;6.60;;;;;;;7.59;87.34;100300.03;5033837;28;20038;-80
2022/04/11 07:20:12;;;;;;;10.05;7.10;;;;;;;7.56;85.64;100311.81;5032869;28;20083;-80
2022/04/11 07:22:39;;;;;;;13.82;7.70;;;;;;;7.60;84.20;100316.00;5034184;28;20441;-80
2022/04/11 07:25:05;;;;;;;12.15;7.82;;;;;;;7.61;84.56;100324.88;5033833;28;20022;-81
2022/04/11 07:27:30;;;;;;;11.05;6.80;;;;;;;7.64;84.96;100336.19;5015768;28;20041;-80
2022/04/11 07:29:56;;;;;;;16.70;7.10;;;;;;;7.62;85.17;100359.53;5033846;28;20067;-81
2022/04/11 07:32:21;;;;;;;10.90;7.18;;;;;;;7.60;84.46;100369.50;5033530;28;20017;-81
2022/04/11 07:34:47;;;;;;;14.75;7.43;;;;;;;7.45;83.33;100369.78;5033882;28;20026;-80
2022/04/11 07:37:13;;;;;;;11.25;6.68;;;;;;;7.47;82.97;100373.19;5032254;28;20018;-80
2022/04/11 07:39:39;;;;;;;10.60;6.45;;;;;;;7.64;84.22;100389.72;5031986;28;20063;-81
2022/04/11 07:42:05;;;;;;;8.90;6.10;;;;;;;7.57;83.79;100390.28;5034066;28;20044;-80
2022/04/11 07:44:30;;;;;;;14.00;7.28;;;;;;;7.62;84.48;100393.47;5032743;28;20021;-81
2022/04/11 07:46:57;;;;;;;11.25;6.57;;;;;;;7.67;85.25;100397.50;5033056;28;20033;-81
2022/04/11 07:49:24;;;;;;;14.48;6.97;;;;;;;7.70;83.76;100400.94;5033182;28;20022;-81
2022/04/11 07:51:50;;;;;;;11.90;6.35;;;;;;;7.67;84.06;100429.63;5032041;28;20025;-80
2022/04/11 07:54:17;;;;;;;15.18;7.97;;;;;;;7.72;84.47;100409.72;5015086;28;20376;-81
2022/04/11 07:56:42;;;;;;;14.95;7.68;;;;;;;7.77;85.10;100416.44;5031323;28;20116;-80
2022/04/11 07:59:08;;;;;;;14.80;7.38;;;;;;;7.81;85.63;100419.75;5031959;28;20124;-80
2022/04/11 08:01:33;;;;;;;14.30;7.13;;;;;;;7.82;85.23;100425.00;5033585;28;20549;-81
2022/04/11 08:03:59;;;;;;;13.85;7.63;;;;;;;7.87;84.07;100424.66;5032858;28;20502;-81
2022/04/11 08:06:24;;;;;;;12.43;6.68;;;;;;;7.83;83.92;100417.84;5033166;28;20017;-79
2022/04/11 08:08:50;;;;;;;12.90;7.97;;;;;;;7.96;84.03;100419.47;5033547;28;20479;-80
2022/04/11 08:11:18;;;;;;;16.63;7.70;;;;;;;7.99;83.38;100405.88;5031924;28;20513;-80
2022/04/11 08:13:44;;;;;;;15.05;8.50;;;;;;;8.08;84.26;100407.84;5031513;28;20067;-80
2022/04/11 08:16:10;;;;;;;10.57;6.70;;;;;;;8.21;83.68;100426.53;5032710;28;20033;-80
2022/04/11 08:18:38;;;;;;;19.88;7.53;;;;;;;8.21;82.39;100421.19;5034059;28;20472;-80
2022/04/11 08:21:04;;;;;;;10.90;6.53;;;;;;;8.27;82.32;100434.13;5032855;28;20033;-80
2022/04/11 08:23:30;;;;;;;13.07;7.65;;;;;;;8.38;81.99;100442.22;5032526;28;20033;-81
2022/04/11 08:25:57;;;;;;;17.52;7.38;;;;;;;8.44;81.75;100435.59;5032741;28;20021;-81
2022/04/11 08:28:23;;;;;;;12.73;6.93;;;;;;;8.50;83.25;100446.66;5033542;28;20546;-82
2022/04/11 08:30:49;;;;;;;11.55;7.38;;;;;;;8.57;82.12;100450.59;5034089;28;20112;-79
2022/04/11 08:33:15;;;;;;;20.38;6.63;;;;;;;8.71;81.51;100458.44;5038650;28;20048;-81
2022/04/11 08:35:42;;;;;;;14.32;5.80;;;;;;;8.77;81.44;100448.22;5038326;28;20021;-79
2022/04/11 08:38:08;;;;;;;10.13;5.50;;;;;;;8.85;81.07;100440.44;5036184;28;20411;-79
2022/04/11 08:40:35;;;;;;;9.00;5.55;;;;;;;8.99;79.94;100449.13;5032466;28;20048;-80
2022/04/11 08:43:02;;;;;;;11.45;6.22;;;;;;;8.97;79.26;100450.22;5015040;28;20072;-80
2022/04/11 08:45:29;;;;;;;12.10;6.03;;;;;;;9.04;79.73;100473.78;5042917;28;20030;-81
2022/04/11 08:47:56;;;;;;;8.13;4.70;;;;;;;9.02;77.51;100456.94;5046348;28;20399;-80
2022/04/11 08:50:26;;;;;;;14.25;5.40;;;;;;;9.08;76.95;100464.50;5041501;28;20033;-83
2022/04/11 08:52:55;;;;;;;7.72;5.25;;;;;;;9.07;76.75;100467.31;5016802;28;20538;-82
2022/04/11 08:55:25;;;;;;;12.65;5.82;;;;;;;8.98;76.36;100446.56;5033588;28;20079;-83
2022/04/11 08:57:50;;;;;;;12.85;7.18;;;;;;;9.11;77.72;100444.66;5033816;28;20033;-83
2022/04/11 09:00:23;;;;;;;15.75;6.40;;;;;;;9.25;76.74;100457.84;5034379;28;20111;-83
2022/04/11 09:02:48;;;;;;;12.20;5.88;;;;;;;9.31;76.03;100460.03;5033769;28;20460;-83
2022/04/11 09:05:23;;;;;;;14.80;5.72;;;;;;;9.42;76.12;100440.41;5035218;28;20109;-83
2022/04/11 09:08:07;;;;;;;11.65;5.95;;;;;;;9.56;75.35;100449.06;5031938;28;20041;-82
2022/04/11 09:10:37;;;;;;;9.90;5.03;;;;;;;9.55;73.91;100458.09;5033525;28;20029;-82
2022/04/11 09:13:06;;;;;;;9.25;4.85;;;;;;;9.56;71.74;100440.16;5032776;28;20077;-83
2022/04/11 09:15:39;;;;;;;15.10;5.40;;;;;;;9.68;73.99;100464.19;5033239;28;20104;-81
2022/04/11 09:18:05;;;;;;;14.70;5.18;;;;;;;9.69;71.64;100444.41;5033397;28;20109;-82
2022/04/11 09:20:30;;;;;;;7.53;4.53;;;;;;;9.61;72.32;100457.59;5033457;28;20057;-84
2022/04/11 09:22:56;;;;;;;17.67;6.30;;;;;;;9.63;70.82;100454.81;5033202;28;20403;-82
2022/04/11 09:25:27;;;;;;;12.35;4.80;;;;;;;9.73;72.19;100451.25;5031482;28;20479;-82
2022/04/11 09:28:09;;;;;;;28.27;10.88;;;;;;;9.87;72.50;100460.88;5032930;28;20068;-81
2022/04/11 09:30:35;;;;;;;11.02;4.60;;;;;;;9.90;71.76;100457.94;5032213;28;20538;-82
2022/04/11 09:33:04;;;;;;;12.27;5.30;;;;;;;9.94;70.51;100448.63;5032031;28;20056;-82
2022/04/11 09:35:35;;;;;;;14.85;5.07;;;;;;;9.92;69.69;100450.59;5031858;28;20034;-82
2022/04/11 09:38:22;;;;;;;14.65;4.72;;;;;;;9.95;68.97;100460.25;5032925;28;20037;-82
2022/04/11 09:40:53;;;;;;;8.23;4.30;;;;;;;9.94;68.53;100463.94;5032526;28;20396;-82
2022/04/11 09:43:25;;;;;;;10.77;4.72;;;;;;;10.04;67.79;100454.97;5031958;28;20048;-82
2022/04/11 09:45:51;;;;;;;30.77;5.13;;;;;;;10.20;67.29;100449.22;5032373;28;20025;-83
2022/04/11 09:48:25;;;;;;;11.23;4.88;;;;;;;10.23;67.08;100446.28;5030951;28;20513;-82
2022/04/11 09:50:52;;;;;;;9.88;4.22;;;;;;;10.28;67.45;100441.38;5032102;28;20098;-83
2022/04/11 09:53:21;;;;;;;17.60;5.40;;;;;;;10.35;67.34;100451.50;5014595;28;20034;-83
2022/04/11 09:55:50;;;;;;;14.43;4.85;;;;;;;10.32;64.44;100453.59;5030975;28;20113;-84
2022/04/11 09:58:17;;;;;;;14.80;5.13;;;;;;;10.38;65.83;100470.06;5031389;28;20037;-84
2022/04/11 10:00:44;;;;;;;11.57;4.18;;;;;;;10.38;65.01;100463.81;5032355;28;20483;-86
2022/04/11 10:03:12;;;;;;;12.77;4.90;;;;;;;10.42;65.02;100465.28;5032923;28;20030;-84
2022/04/11 10:05:39;;;;;;;8.85;4.53;;;;;;;10.45;65.36;100465.03;5032746;28;20021;-85
2022/04/11 10:08:09;;;;;;;16.42;5.50;;;;;;;10.52;64.07;100482.34;5032220;28;20427;-85
2022/04/11 10:10:41;;;;;;;13.98;4.93;;;;;;;10.49;65.11;100469.16;5031342;28;20110;-85
2022/04/11 10:13:11;;;;;;;16.05;5.75;;;;;;;10.57;61.39;100449.69;5041314;28;20057;-85
2022/04/11 10:15:38;;;;;;;16.00;7.03;;;;;;;10.65;63.53;100450.75;5056009;28;20025;-84
2022/04/11 10:18:05;;;;;;;10.57;4.68;;;;;;;10.71;62.73;100460.13;5043316;28;20463;-85
2022/04/11 10:20:35;;;;;;;13.98;4.40;;;;;;;10.63;62.60;100447.34;5032630;28;20121;-85
2022/04/11 10:23:11;;;;;;;30.00;4.65;;;;;;;10.61;62.33;100456.53;5030860;28;20057;-86
2022/04/11 10:25:47;;;;;;;9.85;4.40;;;;;;;10.61;60.40;100460.06;5033578;28;20021;-86
2022/04/11 10:28:29;;;;;;;26.98;5.03;;;;;;;10.63;59.50;100447.34;5018001;28;20040;-86
2022/04/11 10:31:12;;;;;;;24.85;5.22;;;;;;;10.89;61.96;100469.34;5035205;28;20030;-85
2022/04/11 10:33:49;;;;;;;12.52;6.20;;;;;;;10.97;55.95;100463.31;5035683;28;20034;-84
2022/04/11 10:36:38;;;;;;;49.53;11.02;;;;;;;11.01;53.86;100472.84;5049843;28;20018;-84
2022/04/11 10:39:16;;;;;;;14.13;4.00;;;;;;;11.03;54.61;100484.31;5052986;28;20036;-84
2022/04/11 10:42:05;;;;;;;16.90;4.55;;;;;;;11.17;53.68;100478.59;5052988;28;20033;-84
2022/04/11 10:44:43;;;;;;;12.80;3.88;;;;;;;11.19;54.29;100492.78;5051687;28;20042;-85
2022/04/11 10:47:09;;;;;;;13.32;3.22;;;;;;;11.18;53.67;100489.25;5051261;28;20071;-84
2022/04/11 10:49:53;;;;;;;17.90;3.85;;;;;;;11.24;53.88;100496.78;5049443;28;20075;-84
2022/04/11 10:52:31;;;;;;;20.40;4.63;;;;;;;11.29;56.41;100499.94;5035022;28;20033;-83
2022/04/11 10:55:17;;;;;;;9.35;2.92;;;;;;;11.34;55.54;100494.16;5033548;28;20030;-84
2022/04/11 10:57:56;;;;;;;17.25;3.30;;;;;;;11.52;55.40;100500.63;5036134;28;20056;-83
2022/04/11 11:00:26;;;;;;;14.77;3.30;;;;;;;11.56;54.89;100509.31;5033355;28;20033;-82
2022/04/11 11:02:57;;;;;;;9.02;3.00;;;;;;;11.61;54.96;100526.75;5033714;28;20072;-83
2022/04/11 11:05:30;;;;;;;15.18;3.75;;;;;;;11.58;55.06;100516.25;5033108;28;20025;-83
2022/04/11 11:08:09;;;;;;;16.17;3.83;;;;;;;11.57;54.99;100514.53;5033875;28;20033;-82
2022/04/11 11:10:59;;;;;;;9.77;4.03;;;;;;;11.63;53.26;100529.31;5034803;28;20094;-82
2022/04/11 11:13:41;;;;;;;7.45;3.10;;;;;;;11.77;52.78;100521.75;5033959;28;20077;-83
2022/04/11 11:16:07;;;;;;;8.27;3.22;;;;;;;11.87;50.85;100514.56;5034782;28;20025;-81
2022/04/11 11:18:48;;;;;;;14.38;3.17;;;;;;;11.95;51.97;100514.75;5036034;28;20034;-81
2022/04/11 11:21:19;;;;;;;9.35;3.50;;;;;;;11.90;51.69;100530.47;5033646;28;20029;-83
2022/04/11 11:24:12;;;;;;;20.83;3.58;;;;;;;11.85;51.78;100543.50;5036102;28;20042;-81
2022/04/11 11:26:57;;;;;;;9.38;2.55;;;;;;;11.81;52.71;100539.38;5034355;28;20029;-82
2022/04/11 11:29:25;;;;;;;7.70;3.60;;;;;;;11.82;51.08;100564.47;5033194;28;20041;-83
2022/04/11 11:31:54;;;;;;;6.63;3.13;;;;;;;11.74;51.12;100529.28;5033045;28;20063;-81